Time;durP1;ratioP1;P1;durP2;ratioP2;P2;SDS_P1;SDS_P2;PMS_P1;PMS_P2;Temp;Humidity;BMP_temperature;BMP_pressure;BME280_temperature;BME280_humidity;BME280_pressure;Samples;Min_cycle;Max_cycle;Signal;HPM_P1;HPM_P2
2024/02/17 00:00:56;;;;;;;21.75;14.95;;;;;;;9.64;100.00;96469.88;2090785;28;20498;-63
2024/02/17 00:01:57;;;;;;;20.75;13.77;;;;;;;9.63;100.00;96469.03;2097965;28;20037;-63
2024/02/17 00:02:58;;;;;;;20.80;13.57;;;;;;;9.62;100.00;96469.09;2098654;28;20049;-63
2024/02/17 00:03:59;;;;;;;22.05;14.88;;;;;;;9.65;100.00;96471.56;2091222;28;20481;-63
2024/02/17 00:05:01;;;;;;;21.55;14.32;;;;;;;9.64;100.00;96477.66;2091006;28;20045;-63
2024/02/17 00:06:02;;;;;;;24.38;13.57;;;;;;;9.63;100.00;96468.22;2090211;28;20052;-63
2024/02/17 00:07:03;;;;;;;23.50;13.10;;;;;;;9.63;100.00;96466.44;2090436;28;20063;-63
2024/02/17 00:08:04;;;;;;;23.65;12.52;;;;;;;9.60;100.00;96471.75;2091127;28;20039;-63
2024/02/17 00:09:06;;;;;;;18.65;12.20;;;;;;;9.61;100.00;96476.03;2091115;28;20045;-63
2024/02/17 00:10:07;;;;;;;21.13;12.70;;;;;;;9.58;100.00;96472.72;2090974;28;20037;-63
2024/02/17 00:11:08;;;;;;;21.17;13.20;;;;;;;9.54;100.00;96471.13;2091050;28;20054;-63
2024/02/17 00:12:09;;;;;;;25.23;14.63;;;;;;;9.51;100.00;96469.47;2090996;28;20045;-62
2024/02/17 00:13:10;;;;;;;27.45;13.45;;;;;;;9.47;100.00;96468.75;2091384;28;20049;-62
2024/02/17 00:14:11;;;;;;;19.23;14.52;;;;;;;9.46;100.00;96472.25;2091025;28;20044;-62
2024/02/17 00:15:13;;;;;;;24.23;15.88;;;;;;;9.46;100.00;96467.06;2091058;28;20056;-63
2024/02/17 00:16:14;;;;;;;19.63;14.68;;;;;;;9.44;100.00;96468.03;2090993;28;20093;-62
2024/02/17 00:17:15;;;;;;;23.52;15.90;;;;;;;9.42;100.00;96475.84;2090881;28;20044;-62
2024/02/17 00:18:17;;;;;;;25.13;15.25;;;;;;;9.42;100.00;96475.00;2090945;28;20123;-62
2024/02/17 00:19:18;;;;;;;26.85;15.52;;;;;;;9.42;100.00;96477.59;2090849;28;20057;-62
2024/02/17 00:20:19;;;;;;;27.08;14.70;;;;;;;9.43;100.00;96477.50;2090912;28;20057;-63
2024/02/17 00:21:20;;;;;;;20.23;13.57;;;;;;;9.39;100.00;96475.09;2091107;28;20052;-63
2024/02/17 00:22:21;;;;;;;23.95;14.27;;;;;;;9.36;100.00;96478.66;2090601;28;20504;-63
2024/02/17 00:23:22;;;;;;;26.73;15.80;;;;;;;9.39;100.00;96482.88;2091063;28;20045;-63
2024/02/17 00:24:24;;;;;;;27.48;16.35;;;;;;;9.42;100.00;96475.00;2091006;28;20053;-62
2024/02/17 00:25:25;;;;;;;22.77;14.57;;;;;;;9.45;100.00;96475.72;2091390;28;20049;-63
2024/02/17 00:26:26;;;;;;;24.05;16.88;;;;;;;9.48;100.00;96483.38;2090892;28;20396;-63
2024/02/17 00:27:27;;;;;;;25.33;15.30;;;;;;;9.48;100.00;96483.38;2090933;28;20057;-63
2024/02/17 00:28:28;;;;;;;24.83;14.30;;;;;;;9.50;100.00;96483.34;2090887;28;20040;-63
2024/02/17 00:29:29;;;;;;;23.92;15.00;;;;;;;9.50;100.00;96480.75;2090828;28;20047;-62
2024/02/17 00:30:31;;;;;;;23.33;16.33;;;;;;;9.52;100.00;96480.72;2091072;28;20052;-63
2024/02/17 00:31:32;;;;;;;22.95;15.40;;;;;;;9.52;100.00;96488.50;2090978;28;20049;-63
2024/02/17 00:32:33;;;;;;;25.90;15.73;;;;;;;9.56;100.00;96490.06;2090981;28;20053;-63
2024/02/17 00:33:34;;;;;;;27.77;17.20;;;;;;;9.56;100.00;96490.91;2091091;28;20045;-63
2024/02/17 00:34:35;;;;;;;22.20;15.63;;;;;;;9.54;100.00;96487.50;2091620;28;20045;-63
2024/02/17 00:35:36;;;;;;;20.92;13.40;;;;;;;9.54;100.00;96487.50;2090824;28;20052;-63
2024/02/17 00:36:37;;;;;;;22.65;14.93;;;;;;;9.59;100.00;96482.16;2090394;28;20052;-62
2024/02/17 00:37:38;;;;;;;25.35;15.55;;;;;;;9.57;100.00;96489.16;2091583;28;20049;-63
2024/02/17 00:38:39;;;;;;;25.02;15.63;;;;;;;9.59;100.00;96490.78;2090978;28;20041;-62
2024/02/17 00:39:41;;;;;;;18.73;12.60;;;;;;;9.58;100.00;96494.28;2090818;28;20045;-63
2024/02/17 00:40:42;;;;;;;23.00;15.88;;;;;;;9.61;100.00;96490.75;2090745;28;20040;-63
2024/02/17 00:41:44;;;;;;;24.88;15.73;;;;;;;9.61;100.00;96495.94;2090085;28;20037;-63
2024/02/17 00:42:45;;;;;;;24.23;16.67;;;;;;;9.62;100.00;96492.44;2082109;28;20052;-63
2024/02/17 00:43:46;;;;;;;24.75;16.15;;;;;;;9.63;100.00;96500.16;2090160;28;20460;-63
2024/02/17 00:44:47;;;;;;;23.08;16.90;;;;;;;9.63;100.00;96497.56;2090751;28;20041;-63
2024/02/17 00:45:49;;;;;;;24.98;16.70;;;;;;;9.66;100.00;96494.03;2090659;28;20028;-63
2024/02/17 00:46:50;;;;;;;27.02;17.52;;;;;;;9.68;100.00;96502.59;2090756;28;20049;-63
2024/02/17 00:47:51;;;;;;;23.80;16.95;;;;;;;9.67;100.00;96499.13;2090738;28;20037;-63
2024/02/17 00:48:52;;;;;;;24.02;16.33;;;;;;;9.65;100.00;96500.09;2090733;28;20040;-63
2024/02/17 00:49:53;;;;;;;22.85;15.85;;;;;;;9.65;100.00;96500.97;2090757;28;20037;-63
2024/02/17 00:50:54;;;;;;;24.50;17.58;;;;;;;9.64;100.00;96503.59;2090640;28;20033;-62
2024/02/17 00:51:56;;;;;;;22.45;16.15;;;;;;;9.66;100.00;96502.66;2090946;28;20060;-63
2024/02/17 00:52:57;;;;;;;25.13;15.75;;;;;;;9.68;100.00;96505.19;2090694;28;20045;-63
2024/02/17 00:53:58;;;;;;;22.10;16.65;;;;;;;9.69;100.00;96504.28;2090777;28;20048;-67
2024/02/17 00:54:59;;;;;;;27.73;17.40;;;;;;;9.69;100.00;96504.28;2090793;28;20052;-63
2024/02/17 00:56:00;;;;;;;26.10;16.65;;;;;;;9.66;100.00;96510.44;2090403;28;20052;-63
2024/02/17 00:57:01;;;;;;;25.08;16.17;;;;;;;9.64;100.00;96506.19;2090768;28;20436;-63
2024/02/17 00:58:02;;;;;;;25.30;17.30;;;;;;;9.59;100.00;96502.91;2090669;28;20045;-63
2024/02/17 00:59:04;;;;;;;23.85;17.08;;;;;;;9.57;100.00;96508.16;2090669;28;20044;-63
2024/02/17 01:00:07;;;;;;;26.85;17.98;;;;;;;9.46;100.00;96508.53;2090581;28;20057;-63
2024/02/17 01:01:10;;;;;;;24.63;17.67;;;;;;;9.50;100.00;96506.69;2090628;28;20037;-63
2024/02/17 01:02:11;;;;;;;22.80;15.52;;;;;;;9.49;100.00;96507.59;2090250;28;20060;-63
2024/02/17 01:03:12;;;;;;;26.13;16.10;;;;;;;9.44;100.00;96510.34;2090332;28;20044;-63
2024/02/17 01:04:13;;;;;;;26.92;17.30;;;;;;;9.38;100.00;96505.38;2090614;28;20057;-63
2024/02/17 01:05:14;;;;;;;25.83;15.55;;;;;;;9.41;100.00;96514.75;2090775;28;20041;-63
2024/02/17 01:06:15;;;;;;;28.08;16.42;;;;;;;9.44;100.00;96515.53;2090836;28;20044;-63
2024/02/17 01:07:16;;;;;;;23.95;16.52;;;;;;;9.45;100.00;96512.00;2090714;28;20049;-63
2024/02/17 01:08:17;;;;;;;23.10;14.40;;;;;;;9.46;100.00;96508.53;2090626;28;20060;-63
2024/02/17 01:09:18;;;;;;;27.20;14.20;;;;;;;9.48;100.00;96517.09;2090605;28;20055;-63
2024/02/17 01:10:20;;;;;;;19.38;14.18;;;;;;;9.49;100.00;96517.97;2090781;28;20029;-64
2024/02/17 01:11:21;;;;;;;26.00;16.08;;;;;;;9.47;100.00;96510.22;2090213;28;20477;-64
2024/02/17 01:12:24;;;;;;;22.13;14.57;;;;;;;9.50;100.00;96515.28;2090517;28;20448;-64
2024/02/17 01:13:25;;;;;;;20.50;12.98;;;;;;;9.50;100.00;96509.28;2090465;28;20049;-64
2024/02/17 01:14:26;;;;;;;23.67;14.98;;;;;;;9.52;100.00;96517.84;2090548;28;20048;-63
2024/02/17 01:15:27;;;;;;;23.50;13.60;;;;;;;9.52;100.00;96522.19;2090567;28;20484;-64
2024/02/17 01:16:28;;;;;;;21.70;13.95;;;;;;;9.50;100.00;96512.72;2090551;28;20405;-64
2024/02/17 01:17:30;;;;;;;26.25;14.95;;;;;;;9.52;100.00;96519.59;2090401;28;20049;-64
2024/02/17 01:18:31;;;;;;;27.35;15.50;;;;;;;9.51;100.00;96513.53;2090439;28;20049;-65
2024/02/17 01:19:32;;;;;;;20.00;14.20;;;;;;;9.52;100.00;96519.59;2090481;28;20055;-64
2024/02/17 01:20:33;;;;;;;19.30;12.95;;;;;;;9.51;100.00;96516.13;2090459;28;20500;-64
2024/02/17 01:21:34;;;;;;;23.55;13.93;;;;;;;9.51;100.00;96518.72;2090242;28;20473;-64
2024/02/17 01:22:35;;;;;;;22.00;13.88;;;;;;;9.52;100.00;96517.00;2089850;28;20052;-64
2024/02/17 01:23:37;;;;;;;21.83;13.85;;;;;;;9.52;100.00;96519.59;2090410;28;20037;-63
2024/02/17 01:24:38;;;;;;;21.30;12.88;;;;;;;9.53;100.00;96516.09;2090448;28;20045;-63
2024/02/17 01:25:39;;;;;;;19.58;13.23;;;;;;;9.53;100.00;96523.88;2090458;28;20040;-63
2024/02/17 01:26:40;;;;;;;18.75;12.60;;;;;;;9.54;100.00;96525.56;2090480;28;20397;-63
2024/02/17 01:27:41;;;;;;;20.13;12.70;;;;;;;9.53;100.00;96519.53;2090510;28;20041;-63
2024/02/17 01:28:42;;;;;;;24.70;14.00;;;;;;;9.54;100.00;96521.22;2090457;28;20478;-63
2024/02/17 01:29:43;;;;;;;18.92;13.20;;;;;;;9.56;100.00;96518.59;2090374;28;20056;-63
2024/02/17 01:30:44;;;;;;;24.63;14.20;;;;;;;9.56;100.00;96527.19;2090353;28;20041;-64
2024/02/17 01:31:45;;;;;;;20.30;13.68;;;;;;;9.55;100.00;96522.09;2090362;28;20033;-63
2024/02/17 01:32:47;;;;;;;19.17;12.70;;;;;;;9.53;100.00;96524.72;2090785;28;20047;-63
2024/02/17 01:33:50;;;;;;;23.02;14.10;;;;;;;9.53;100.00;96531.66;2090380;28;20055;-63
2024/02/17 01:34:51;;;;;;;27.48;15.30;;;;;;;9.54;100.00;96523.81;2090064;28;20045;-63
2024/02/17 01:35:53;;;;;;;18.67;13.10;;;;;;;9.54;100.00;96520.38;2089731;28;20041;-63
2024/02/17 01:36:55;;;;;;;20.50;13.88;;;;;;;9.54;100.00;96525.56;2090006;28;20048;-63
2024/02/17 01:37:56;;;;;;;22.02;14.30;;;;;;;9.54;100.00;96525.56;2089789;28;20047;-63
2024/02/17 01:38:57;;;;;;;20.88;13.60;;;;;;;9.54;100.00;96531.59;2090350;28;20040;-63
2024/02/17 01:39:58;;;;;;;23.02;15.30;;;;;;;9.54;100.00;96533.34;2090371;28;20045;-63
2024/02/17 01:40:59;;;;;;;22.58;13.75;;;;;;;9.53;100.00;96529.06;2090864;28;20473;-63
2024/02/17 01:42:00;;;;;;;20.38;14.25;;;;;;;9.54;100.00;96531.59;2090587;28;20068;-63
2024/02/17 01:43:01;;;;;;;21.88;14.82;;;;;;;9.54;100.00;96525.56;2090517;28;20051;-64
2024/02/17 01:44:03;;;;;;;20.40;13.98;;;;;;;9.54;100.00;96530.75;2089424;28;20032;-63
2024/02/17 01:45:07;;;;;;;25.85;15.23;;;;;;;9.52;100.00;96532.56;2081357;28;20052;-63
2024/02/17 01:46:08;;;;;;;19.30;13.85;;;;;;;9.54;100.00;96535.94;2089436;28;20052;-63
2024/02/17 01:47:09;;;;;;;25.50;14.35;;;;;;;9.55;100.00;96540.22;2089382;28;20421;-64
2024/02/17 01:48:10;;;;;;;24.02;14.88;;;;;;;9.53;100.00;96534.25;2089731;28;20470;-63
2024/02/17 01:49:11;;;;;;;22.33;14.38;;;;;;;9.54;100.00;96535.94;2090923;28;20041;-64
2024/02/17 01:50:13;;;;;;;23.20;15.18;;;;;;;9.53;100.00;96534.25;2090331;28;20052;-63
2024/02/17 01:51:14;;;;;;;26.63;14.68;;;;;;;9.54;100.00;96535.94;2089070;28;20484;-64
2024/02/17 01:52:15;;;;;;;21.15;14.70;;;;;;;9.53;100.00;96535.09;2088689;28;20056;-64
2024/02/17 01:53:16;;;;;;;27.90;16.63;;;;;;;9.54;100.00;96539.38;2089630;28;20044;-63
2024/02/17 01:54:17;;;;;;;25.05;16.00;;;;;;;9.54;100.00;96539.38;2088778;28;20048;-63
2024/02/17 01:55:19;;;;;;;25.58;14.82;;;;;;;9.54;100.00;96541.13;2089742;28;20052;-63
2024/02/17 01:56:21;;;;;;;21.92;14.52;;;;;;;9.53;100.00;96535.09;2090049;28;20067;-63
2024/02/17 01:57:22;;;;;;;21.90;13.60;;;;;;;9.52;100.00;96537.75;2081204;28;20060;-63
2024/02/17 01:58:23;;;;;;;26.30;15.85;;;;;;;9.52;100.00;96540.34;2081017;28;20052;-63
2024/02/17 01:59:25;;;;;;;22.75;14.90;;;;;;;9.51;100.00;96534.28;2089772;28;20428;-64
2024/02/17 02:00:27;;;;;;;23.50;14.60;;;;;;;9.50;100.00;96536.03;2089217;28;20493;-63
2024/02/17 02:01:28;;;;;;;21.58;14.05;;;;;;;9.50;100.00;96549.00;2090232;28;20044;-63
2024/02/17 02:02:29;;;;;;;24.45;15.85;;;;;;;9.49;100.00;96536.94;2089976;28;20048;-63
2024/02/17 02:03:30;;;;;;;21.52;14.07;;;;;;;9.49;100.00;96536.09;2092472;28;20045;-63
2024/02/17 02:04:31;;;;;;;25.15;14.10;;;;;;;9.47;100.00;96546.53;2089530;28;20041;-64
2024/02/17 02:05:33;;;;;;;24.00;14.63;;;;;;;9.46;100.00;96543.97;2089402;28;20052;-63
2024/02/17 02:06:34;;;;;;;25.23;14.82;;;;;;;9.47;100.00;96536.16;2089637;28;20033;-63
2024/02/17 02:07:35;;;;;;;19.10;13.00;;;;;;;9.47;100.00;96538.75;2090030;28;20041;-63
2024/02/17 02:08:36;;;;;;;26.08;14.80;;;;;;;9.48;100.00;96535.25;2090290;28;20739;-63
2024/02/17 02:09:37;;;;;;;23.73;15.10;;;;;;;9.48;100.00;96537.00;2097808;28;20032;-63
2024/02/17 02:10:38;;;;;;;20.95;14.23;;;;;;;9.47;100.00;96545.69;2089164;28;20064;-63
2024/02/17 02:11:40;;;;;;;25.23;16.13;;;;;;;9.47;100.00;96538.75;2089473;28;20408;-64
2024/02/17 02:12:41;;;;;;;24.70;17.02;;;;;;;9.47;100.00;96543.94;2090260;28;20051;-63
2024/02/17 02:13:42;;;;;;;23.05;16.48;;;;;;;9.47;100.00;96533.56;2090198;28;20051;-63
2024/02/17 02:14:43;;;;;;;26.45;16.95;;;;;;;9.47;100.00;96543.94;2090232;28;20064;-64
2024/02/17 02:15:44;;;;;;;24.08;16.42;;;;;;;9.44;100.00;96544.03;2090171;28;20057;-64
2024/02/17 02:16:48;;;;;;;27.25;17.20;;;;;;;9.45;100.00;96535.34;2090121;28;20049;-64
2024/02/17 02:17:49;;;;;;;25.00;17.58;;;;;;;9.44;100.00;96538.84;2090108;28;20036;-64
2024/02/17 02:18:50;;;;;;;24.70;16.98;;;;;;;9.44;100.00;96540.59;2090145;28;20048;-64
2024/02/17 02:19:51;;;;;;;25.92;17.55;;;;;;;9.42;100.00;96530.28;2090187;28;20045;-63
2024/02/17 02:20:52;;;;;;;24.17;16.40;;;;;;;9.45;100.00;96542.28;2090049;28;20055;-64
2024/02/17 02:21:53;;;;;;;28.63;18.52;;;;;;;9.44;100.00;96545.78;2090088;28;20040;-64
2024/02/17 02:22:54;;;;;;;26.35;18.00;;;;;;;9.46;100.00;96547.44;2089551;28;20044;-65
2024/02/17 02:23:56;;;;;;;26.42;16.67;;;;;;;9.46;100.00;96547.44;2090048;28;20041;-64
2024/02/17 02:24:58;;;;;;;24.83;15.25;;;;;;;9.44;100.00;96551.81;2090043;28;20040;-64
2024/02/17 02:25:59;;;;;;;27.45;17.10;;;;;;;9.43;100.00;96544.91;2088961;28;20401;-64
2024/02/17 02:27:00;;;;;;;26.05;17.38;;;;;;;9.43;100.00;96547.50;2089699;28;20045;-64
2024/02/17 02:28:02;;;;;;;22.92;15.63;;;;;;;9.44;100.00;96551.81;2090223;28;20044;-64
2024/02/17 02:29:03;;;;;;;26.50;18.52;;;;;;;9.42;100.00;96552.75;2090186;28;20505;-64
2024/02/17 02:30:04;;;;;;;25.10;17.58;;;;;;;9.43;100.00;96550.09;2089613;28;20058;-63
2024/02/17 02:31:06;;;;;;;30.25;18.63;;;;;;;9.43;100.00;96546.66;2089625;28;20464;-64
2024/02/17 02:32:07;;;;;;;28.85;18.77;;;;;;;9.42;100.00;96551.00;2090013;28;20049;-64
2024/02/17 02:33:08;;;;;;;27.13;17.90;;;;;;;9.41;100.00;96551.91;2090040;28;20041;-64
2024/02/17 02:34:09;;;;;;;27.83;18.67;;;;;;;9.40;100.00;96552.81;2090130;28;20037;-64
2024/02/17 02:35:10;;;;;;;26.67;17.92;;;;;;;9.42;100.00;96550.16;2089845;28;20045;-64
2024/02/17 02:36:11;;;;;;;26.90;18.00;;;;;;;9.41;100.00;96556.22;2089713;28;20036;-64
2024/02/17 02:37:12;;;;;;;32.85;19.45;;;;;;;9.41;100.00;96551.91;2090224;28;20033;-64
2024/02/17 02:38:13;;;;;;;33.78;21.40;;;;;;;9.39;100.00;96558.06;2090025;28;20021;-65
2024/02/17 02:39:14;;;;;;;30.75;19.02;;;;;;;9.41;100.00;96557.09;2089981;28;20053;-65
2024/02/17 02:40:16;;;;;;;28.77;19.13;;;;;;;9.41;100.00;96551.03;2090288;28;20060;-64
2024/02/17 02:41:17;;;;;;;27.60;18.98;;;;;;;9.40;100.00;96557.16;2089691;28;20512;-63
2024/02/17 02:42:18;;;;;;;27.80;18.25;;;;;;;9.38;100.00;96562.41;2089435;28;20041;-64
2024/02/17 02:43:19;;;;;;;29.23;18.80;;;;;;;9.37;100.00;96563.28;2089681;28;20040;-64
2024/02/17 02:44:20;;;;;;;26.20;18.40;;;;;;;9.35;100.00;96565.06;2090129;28;20052;-64
2024/02/17 02:45:21;;;;;;;29.25;18.65;;;;;;;9.35;100.00;96561.63;2090100;28;20045;-64
2024/02/17 02:46:22;;;;;;;27.20;19.08;;;;;;;9.36;100.00;96564.19;2089985;28;20048;-65
2024/02/17 02:47:23;;;;;;;30.80;21.00;;;;;;;9.38;100.00;96564.13;2090130;28;20044;-64
2024/02/17 02:48:24;;;;;;;30.40;19.90;;;;;;;9.35;100.00;96565.06;2089977;28;20040;-64
2024/02/17 02:49:26;;;;;;;35.35;19.45;;;;;;;9.36;100.00;96566.78;2089776;28;20056;-64
2024/02/17 02:50:27;;;;;;;25.50;18.08;;;;;;;9.36;100.00;96568.53;2090053;28;20404;-64
2024/02/17 02:51:28;;;;;;;29.10;19.02;;;;;;;9.37;100.00;96565.88;2089772;28;20044;-64
2024/02/17 02:52:29;;;;;;;29.80;20.45;;;;;;;9.36;100.00;96569.38;2089696;28;20056;-64
2024/02/17 02:53:30;;;;;;;24.95;19.05;;;;;;;9.37;100.00;96565.88;2089834;28;20049;-64
2024/02/17 02:54:31;;;;;;;30.38;19.08;;;;;;;9.40;100.00;96562.31;2089838;28;20397;-64
2024/02/17 02:55:32;;;;;;;32.55;21.02;;;;;;;9.40;100.00;96565.75;2089490;28;20061;-64
2024/02/17 02:56:33;;;;;;;34.95;20.98;;;;;;;9.40;100.00;96568.34;2089680;28;20492;-63
2024/02/17 02:57:35;;;;;;;27.23;16.88;;;;;;;9.42;100.00;96568.31;2089796;28;20048;-63
2024/02/17 02:58:36;;;;;;;30.17;19.77;;;;;;;9.40;100.00;96563.16;2089821;28;20045;-64
2024/02/17 02:59:37;;;;;;;26.23;18.15;;;;;;;9.41;100.00;96574.38;2089929;28;20489;-64
2024/02/17 03:00:38;;;;;;;30.25;20.52;;;;;;;9.41;100.00;96572.66;2089147;28;20128;-64
2024/02/17 03:01:39;;;;;;;31.67;19.23;;;;;;;9.42;100.00;96576.09;2089239;28;20056;-63
2024/02/17 03:02:40;;;;;;;33.38;20.02;;;;;;;9.41;100.00;96572.66;2089797;28;20045;-63
2024/02/17 03:03:41;;;;;;;35.78;21.92;;;;;;;9.42;100.00;96568.31;2089964;28;20045;-63
2024/02/17 03:04:42;;;;;;;32.72;20.30;;;;;;;9.42;100.00;96573.50;2090027;28;20040;-64
2024/02/17 03:05:44;;;;;;;27.95;20.67;;;;;;;9.42;100.00;96573.50;2089907;28;20052;-64
2024/02/17 03:06:45;;;;;;;29.38;20.10;;;;;;;9.41;100.00;96577.84;2089992;28;20064;-64
2024/02/17 03:07:46;;;;;;;28.38;19.70;;;;;;;9.44;100.00;96577.75;2089908;28;20068;-65
2024/02/17 03:08:47;;;;;;;31.02;21.65;;;;;;;9.43;100.00;96578.63;2089912;28;20508;-66
2024/02/17 03:09:48;;;;;;;32.65;21.58;;;;;;;9.44;100.00;96576.91;2091406;28;20056;-66
2024/02/17 03:10:49;;;;;;;28.98;19.83;;;;;;;9.44;100.00;96571.72;2091546;28;20045;-66
2024/02/17 03:11:50;;;;;;;33.30;22.48;;;;;;;9.43;100.00;96575.19;2091512;28;20037;-67
2024/02/17 03:12:51;;;;;;;35.20;23.27;;;;;;;9.43;100.00;96580.38;2091494;28;20045;-67
2024/02/17 03:13:52;;;;;;;32.85;21.58;;;;;;;9.43;100.00;96580.38;2091494;28;20508;-67
2024/02/17 03:14:54;;;;;;;33.20;22.33;;;;;;;9.43;100.00;96580.38;2091529;28;20040;-67
2024/02/17 03:15:55;;;;;;;37.30;23.52;;;;;;;9.44;100.00;96582.09;2091410;28;20041;-68
2024/02/17 03:16:56;;;;;;;37.33;23.73;;;;;;;9.43;100.00;96581.22;2091373;28;20481;-68
2024/02/17 03:17:57;;;;;;;34.70;25.02;;;;;;;9.42;100.00;96584.72;2091563;28;20044;-68
2024/02/17 03:18:58;;;;;;;33.72;24.23;;;;;;;9.42;100.00;96583.88;2091347;28;20037;-69
2024/02/17 03:19:59;;;;;;;34.03;24.95;;;;;;;9.42;100.00;96581.28;2091369;28;20037;-68
2024/02/17 03:21:00;;;;;;;38.03;24.05;;;;;;;9.42;100.00;96584.72;2091549;28;20029;-69
2024/02/17 03:22:02;;;;;;;39.28;25.27;;;;;;;9.45;100.00;96582.00;2091437;28;20044;-69
2024/02/17 03:23:03;;;;;;;35.15;23.42;;;;;;;9.44;100.00;96585.50;2091461;28;20051;-69
2024/02/17 03:24:04;;;;;;;38.63;25.60;;;;;;;9.43;100.00;96588.16;2091379;28;20374;-68
2024/02/17 03:25:05;;;;;;;35.47;24.58;;;;;;;9.43;100.00;96582.97;2091305;28;20041;-69
2024/02/17 03:26:06;;;;;;;37.08;26.42;;;;;;;9.42;100.00;96583.88;2091313;28;20041;-69
2024/02/17 03:27:08;;;;;;;36.05;25.52;;;;;;;9.43;100.00;96590.72;2091451;28;20397;-69
2024/02/17 03:28:09;;;;;;;38.17;23.75;;;;;;;9.43;100.00;96588.97;2091292;28;20037;-69
2024/02/17 03:29:10;;;;;;;35.85;24.02;;;;;;;9.44;100.00;96595.03;2091356;28;20045;-68
2024/02/17 03:30:11;;;;;;;39.90;25.25;;;;;;;9.42;100.00;96594.25;2091297;28;20059;-68
2024/02/17 03:31:12;;;;;;;36.00;25.25;;;;;;;9.40;100.00;96599.47;2091391;28;20033;-69
2024/02/17 03:32:13;;;;;;;38.22;25.08;;;;;;;9.40;100.00;96599.47;2091383;28;20040;-69
2024/02/17 03:33:15;;;;;;;36.47;24.85;;;;;;;9.42;100.00;96599.41;2091359;28;20045;-69
2024/02/17 03:34:16;;;;;;;34.53;25.15;;;;;;;9.43;100.00;96598.50;2091467;28;20048;-70
2024/02/17 03:35:17;;;;;;;32.33;23.13;;;;;;;9.42;100.00;96602.00;2090976;28;20053;-68
2024/02/17 03:36:19;;;;;;;35.88;25.77;;;;;;;9.40;100.00;96599.47;2091451;28;20041;-69
2024/02/17 03:37:21;;;;;;;36.60;24.92;;;;;;;9.39;100.00;96600.38;2091289;28;20481;-69
2024/02/17 03:38:22;;;;;;;35.42;24.83;;;;;;;9.38;100.00;96601.28;2091278;28;20041;-69
2024/02/17 03:39:23;;;;;;;31.00;23.15;;;;;;;9.37;100.00;96599.56;2091219;28;20044;-68
2024/02/17 03:40:24;;;;;;;33.97;23.98;;;;;;;9.37;100.00;96607.34;2091255;28;20484;-69
2024/02/17 03:41:28;;;;;;;36.38;25.30;;;;;;;9.37;100.00;96607.34;2091160;28;20499;-69
2024/02/17 03:42:29;;;;;;;37.47;26.63;;;;;;;9.38;100.00;96603.00;2091235;28;20055;-69
2024/02/17 03:43:30;;;;;;;32.35;24.30;;;;;;;9.37;100.00;96611.69;2091160;28;20060;-68
2024/02/17 03:44:31;;;;;;;32.45;22.73;;;;;;;9.37;100.00;96607.34;2091328;28;20052;-69
2024/02/17 03:45:32;;;;;;;31.02;20.88;;;;;;;9.36;100.00;96610.00;2091305;28;20036;-69
2024/02/17 03:46:33;;;;;;;33.95;23.58;;;;;;;9.34;100.00;96602.25;2091230;28;20052;-69
2024/02/17 03:47:34;;;;;;;29.67;22.00;;;;;;;9.34;100.00;96604.00;2091253;28;20485;-70
2024/02/17 03:48:35;;;;;;;33.40;21.83;;;;;;;9.35;100.00;96609.13;2091252;28;20051;-69
2024/02/17 03:49:37;;;;;;;34.58;22.80;;;;;;;9.35;100.00;96609.13;2091173;28;20037;-70
2024/02/17 03:50:38;;;;;;;30.25;22.70;;;;;;;9.35;100.00;96609.13;2091197;28;20048;-69
2024/02/17 03:51:39;;;;;;;37.38;23.88;;;;;;;9.37;100.00;96614.28;2090939;28;20041;-69
2024/02/17 03:52:40;;;;;;;32.35;22.67;;;;;;;9.38;100.00;96614.25;2090954;28;20401;-70
2024/02/17 03:53:41;;;;;;;29.67;20.15;;;;;;;9.37;100.00;96612.53;2091313;28;20044;-69
2024/02/17 03:54:43;;;;;;;32.38;19.75;;;;;;;9.36;100.00;96605.66;2091102;28;20049;-69
2024/02/17 03:55:44;;;;;;;29.25;20.77;;;;;;;9.35;100.00;96618.66;2090892;28;20049;-69
2024/02/17 03:56:45;;;;;;;26.88;21.73;;;;;;;9.38;100.00;96619.44;2091425;28;20373;-69
2024/02/17 03:57:46;;;;;;;32.00;22.58;;;;;;;9.36;100.00;96616.03;2091141;28;20035;-69
2024/02/17 03:58:47;;;;;;;26.73;18.98;;;;;;;9.38;100.00;96624.59;2091093;28;20143;-69
2024/02/17 03:59:49;;;;;;;27.67;20.63;;;;;;;9.38;100.00;96619.44;2091174;28;20041;-69
2024/02/17 04:00:50;;;;;;;30.73;21.05;;;;;;;9.39;100.00;96623.69;2091020;28;20404;-69
2024/02/17 04:01:55;;;;;;;31.77;20.67;;;;;;;9.38;100.00;96624.59;2090977;28;20049;-69
2024/02/17 04:02:56;;;;;;;28.50;19.05;;;;;;;9.38;100.00;96629.78;2091067;28;20063;-68
2024/02/17 04:03:57;;;;;;;26.08;19.50;;;;;;;9.38;100.00;96628.91;2091091;28;20040;-70
2024/02/17 04:04:58;;;;;;;29.95;20.55;;;;;;;9.39;100.00;96630.63;2091205;28;20506;-68
2024/02/17 04:05:59;;;;;;;31.45;22.13;;;;;;;9.39;100.00;96628.88;2090877;28;20034;-68
2024/02/17 04:07:00;;;;;;;30.10;20.73;;;;;;;9.40;100.00;96630.56;2090976;28;20045;-68
2024/02/17 04:08:01;;;;;;;26.88;20.17;;;;;;;9.40;100.00;96634.91;2091122;28;20053;-69
2024/02/17 04:09:03;;;;;;;30.08;20.20;;;;;;;9.40;100.00;96633.16;2091045;28;20029;-68
2024/02/17 04:10:05;;;;;;;25.98;19.42;;;;;;;9.42;100.00;96633.13;2090984;28;20045;-68
2024/02/17 04:11:07;;;;;;;27.77;19.85;;;;;;;9.40;100.00;96638.34;2091020;28;20037;-68
2024/02/17 04:12:08;;;;;;;32.05;19.17;;;;;;;9.41;100.00;96637.47;2091027;28;20045;-68
2024/02/17 04:13:09;;;;;;;27.23;18.52;;;;;;;9.40;100.00;96638.34;2090993;28;20511;-67
2024/02/17 04:14:10;;;;;;;30.17;21.13;;;;;;;9.39;100.00;96641.84;2090973;28;20045;-68
2024/02/17 04:15:11;;;;;;;26.85;18.52;;;;;;;9.42;100.00;96646.09;2090976;28;20047;-67
2024/02/17 04:16:12;;;;;;;26.58;19.77;;;;;;;9.42;100.00;96649.53;2090947;28;20045;-67
2024/02/17 04:17:13;;;;;;;27.67;19.67;;;;;;;9.42;100.00;96643.50;2090977;28;20041;-68
2024/02/17 04:18:15;;;;;;;30.10;20.10;;;;;;;9.40;100.00;96648.72;2090938;28;20040;-67
2024/02/17 04:19:16;;;;;;;29.10;19.92;;;;;;;9.42;100.00;96646.94;2090157;28;20444;-67
2024/02/17 04:20:17;;;;;;;27.35;18.35;;;;;;;9.41;100.00;96653.03;2090647;28;20056;-67
2024/02/17 04:21:18;;;;;;;26.80;19.00;;;;;;;9.42;100.00;96652.13;2090975;28;20496;-68
2024/02/17 04:22:19;;;;;;;31.80;21.50;;;;;;;9.42;100.00;96659.03;2091604;28;20072;-68
2024/02/17 04:23:20;;;;;;;31.20;20.83;;;;;;;9.42;100.00;96657.28;2090336;28;20476;-68
2024/02/17 04:24:21;;;;;;;26.92;18.70;;;;;;;9.44;100.00;96659.84;2090938;28;20377;-67
2024/02/17 04:25:22;;;;;;;29.55;19.65;;;;;;;9.43;100.00;96661.56;2090662;28;20052;-67
2024/02/17 04:26:24;;;;;;;30.05;19.90;;;;;;;9.44;100.00;96659.84;2090563;28;20508;-67
2024/02/17 04:27:25;;;;;;;29.48;19.83;;;;;;;9.43;100.00;96664.16;2090936;28;20033;-68
2024/02/17 04:28:26;;;;;;;26.40;18.83;;;;;;;9.39;100.00;96657.41;2090947;28;20036;-68
2024/02/17 04:29:29;;;;;;;30.08;19.95;;;;;;;9.40;100.00;96672.03;2090857;28;20044;-69
2024/02/17 04:30:31;;;;;;;27.48;20.05;;;;;;;9.40;100.00;96664.28;2090847;28;20063;-68
2024/02/17 04:31:32;;;;;;;26.95;18.48;;;;;;;9.40;100.00;96674.63;2090854;28;20405;-69
2024/02/17 04:32:33;;;;;;;31.02;19.02;;;;;;;9.38;100.00;96671.28;2090903;28;20035;-69
2024/02/17 04:33:37;;;;;;;28.88;19.73;;;;;;;9.36;100.00;96669.63;2090829;28;20404;-70
2024/02/17 04:34:38;;;;;;;29.80;21.17;;;;;;;9.35;100.00;96670.50;2089810;28;20052;-69
2024/02/17 04:35:39;;;;;;;31.05;22.20;;;;;;;9.36;100.00;96672.22;2090346;28;20053;-69
2024/02/17 04:36:40;;;;;;;29.92;21.35;;;;;;;9.35;100.00;96675.69;2090880;28;20507;-69
2024/02/17 04:37:41;;;;;;;32.40;21.77;;;;;;;9.36;100.00;96677.41;2090781;28;20053;-70
2024/02/17 04:38:42;;;;;;;30.88;20.50;;;;;;;9.34;100.00;96677.44;2090654;28;20045;-69
2024/02/17 04:39:43;;;;;;;32.05;21.63;;;;;;;9.34;100.00;96679.19;2090817;28;20052;-69
2024/02/17 04:40:45;;;;;;;30.63;19.60;;;;;;;9.31;100.00;96676.69;2090825;28;20053;-69
2024/02/17 04:41:47;;;;;;;32.50;21.83;;;;;;;9.32;100.00;96681.81;2090666;28;20048;-69